createdAt,value
2018-04-17T00:00:39.014Z,24.82
2018-04-17T00:03:13.972Z,24.83
2018-04-17T00:05:48.638Z,24.83
2018-04-17T00:08:23.659Z,24.85
2018-04-17T00:10:58.201Z,24.84
2018-04-17T00:13:33.355Z,24.83
2018-04-17T00:16:07.961Z,24.84
2018-04-17T00:18:42.547Z,24.84
2018-04-17T00:21:17.223Z,24.84
2018-04-17T00:23:52.405Z,24.84
2018-04-17T00:26:27.019Z,24.84
2018-04-17T00:29:01.538Z,24.84
2018-04-17T00:31:36.177Z,24.85
2018-04-17T00:34:10.991Z,24.84
2018-04-17T00:36:45.644Z,24.85
2018-04-17T00:39:20.663Z,24.84
2018-04-17T00:41:55.347Z,24.84
2018-04-17T00:44:30.645Z,24.85
2018-04-17T00:47:05.084Z,24.84
2018-04-17T00:49:39.983Z,24.85
2018-04-17T00:52:14.677Z,24.85
2018-04-17T00:54:49.438Z,24.85
2018-04-17T00:57:24.143Z,24.86
2018-04-17T00:59:58.791Z,24.85
2018-04-17T01:02:33.483Z,24.85
2018-04-17T01:05:08.542Z,24.85
2018-04-17T01:07:43.269Z,24.85
2018-04-17T01:10:18.316Z,24.84
2018-04-17T01:12:53.007Z,24.84
2018-04-17T01:15:27.867Z,24.84
2018-04-17T01:18:02.485Z,24.84
2018-04-17T01:20:37.525Z,24.85
2018-04-17T01:23:12.200Z,24.83
2018-04-17T01:25:47.399Z,24.82
2018-04-17T01:28:22.410Z,24.83
2018-04-17T01:30:57.189Z,24.83
2018-04-17T01:33:31.892Z,24.82
2018-04-17T01:36:07.023Z,24.81
2018-04-17T01:38:41.523Z,24.82
2018-04-17T01:41:16.515Z,24.81
2018-04-17T01:43:51.188Z,24.81
2018-04-17T01:46:25.950Z,24.80
2018-04-17T01:49:00.634Z,24.81
2018-04-17T01:51:36.613Z,24.81
2018-04-17T01:54:11.045Z,24.80
2018-04-17T01:56:46.027Z,24.80
2018-04-17T01:59:20.703Z,24.80
2018-04-17T02:01:55.639Z,24.79
2018-04-17T02:04:30.087Z,24.80
2018-04-17T02:07:05.178Z,24.79
2018-04-17T02:09:39.614Z,24.80
2018-04-17T02:12:14.534Z,24.81
2018-04-17T02:14:49.052Z,24.81
2018-04-17T02:17:24.092Z,24.82
2018-04-17T02:19:58.817Z,24.82
2018-04-17T02:22:33.849Z,24.82
2018-04-17T02:25:08.411Z,24.83
2018-04-17T02:27:43.406Z,24.82
2018-04-17T02:30:18.142Z,24.83
2018-04-17T02:32:53.167Z,24.83
2018-04-17T02:35:27.878Z,24.83
2018-04-17T02:38:02.813Z,24.84
2018-04-17T02:40:37.447Z,24.84
2018-04-17T02:43:12.307Z,24.84
2018-04-17T02:45:46.993Z,24.84
2018-04-17T02:48:21.666Z,24.84
2018-04-17T02:50:56.308Z,24.84
2018-04-17T02:53:31.283Z,24.85
2018-04-17T02:56:05.946Z,24.84
2018-04-17T02:58:41.167Z,24.85
2018-04-17T03:01:15.700Z,24.85
2018-04-17T03:03:50.722Z,24.83
2018-04-17T03:06:25.311Z,24.84
2018-04-17T03:09:00.262Z,24.83
2018-04-17T03:11:34.911Z,24.80
2018-04-17T03:14:09.919Z,24.79
2018-04-17T03:16:44.580Z,24.75
2018-04-17T03:19:19.238Z,24.72
2018-04-17T03:21:53.942Z,24.73
2018-04-17T03:24:28.983Z,24.70
2018-04-17T03:27:03.639Z,24.69
2018-04-17T03:29:38.382Z,24.67
2018-04-17T03:32:13.157Z,24.65
2018-04-17T03:34:47.825Z,24.63
2018-04-17T03:37:22.459Z,24.62
2018-04-17T03:39:57.511Z,24.60
2018-04-17T03:42:32.165Z,24.58
2018-04-17T03:45:06.867Z,24.58
2018-04-17T03:47:41.560Z,24.56
2018-04-17T03:50:16.632Z,24.54
2018-04-17T03:52:51.363Z,24.52
2018-04-17T03:55:26.401Z,24.52
2018-04-17T03:58:01.086Z,24.51
2018-04-17T04:00:36.135Z,24.50
2018-04-17T04:03:10.747Z,24.50
2018-04-17T04:05:45.486Z,24.48
2018-04-17T04:08:20.155Z,24.49
2018-04-17T04:10:55.159Z,24.48
2018-04-17T04:13:29.834Z,24.47
2018-04-17T04:16:04.367Z,24.46
2018-04-17T04:18:50.343Z,24.46
2018-04-17T04:35:09.039Z,24.38
2018-04-17T04:37:43.547Z,24.39
2018-04-17T04:40:18.312Z,24.37
2018-04-17T04:42:52.980Z,24.36
2018-04-17T04:45:27.738Z,24.34
2018-04-17T04:48:02.487Z,24.31
2018-04-17T04:50:37.622Z,24.30
2018-04-17T04:53:12.169Z,24.30
2018-04-17T04:55:47.168Z,24.30
2018-04-17T04:58:21.838Z,24.30
2018-04-17T05:00:56.374Z,24.29
2018-04-17T05:03:30.941Z,24.26
2018-04-17T05:06:06.641Z,24.27
2018-04-17T05:08:41.346Z,24.26
2018-04-17T05:11:16.047Z,24.25
2018-04-17T05:13:50.544Z,24.24
2018-04-17T05:16:24.834Z,24.22
2018-04-17T05:18:59.512Z,24.21
2018-04-17T05:21:34.535Z,24.21
2018-04-17T05:24:08.761Z,24.21
2018-04-17T05:26:43.892Z,24.20
2018-04-17T05:29:18.516Z,24.20
2018-04-17T05:31:53.228Z,24.21
2018-04-17T05:34:27.949Z,24.21
2018-04-17T05:37:02.694Z,24.19
2018-04-17T05:39:37.325Z,24.20
2018-04-17T05:42:12.250Z,24.21
2018-04-17T05:44:46.907Z,24.20
2018-04-17T05:47:21.512Z,24.21
2018-04-17T05:49:56.182Z,24.21
2018-04-17T05:52:31.280Z,24.20
2018-04-17T05:55:05.943Z,24.19
2018-04-17T05:57:41.038Z,24.20
2018-04-17T06:00:15.708Z,24.20
2018-04-17T06:02:50.371Z,24.19
2018-04-17T06:05:24.800Z,24.19
2018-04-17T06:07:59.835Z,24.19
2018-04-17T06:10:34.506Z,24.19
2018-04-17T06:13:09.195Z,24.18
2018-04-17T06:15:43.825Z,24.16
2018-04-17T06:18:18.508Z,24.17
2018-04-17T06:20:53.003Z,24.17
2018-04-17T06:23:27.936Z,24.17
2018-04-17T06:26:02.584Z,24.17
2018-04-17T06:28:37.576Z,24.18
2018-04-17T06:31:12.251Z,24.17
2018-04-17T06:33:46.984Z,24.17
2018-04-17T06:36:21.698Z,24.17
2018-04-17T06:38:56.791Z,24.17
2018-04-17T06:41:31.496Z,24.17
2018-04-17T06:44:06.445Z,24.16
2018-04-17T06:46:41.460Z,24.15
2018-04-17T06:49:16.117Z,24.16
2018-04-17T06:51:50.816Z,24.16
2018-04-17T06:54:25.641Z,24.16
2018-04-17T06:57:00.307Z,24.15
2018-04-17T06:59:35.620Z,24.16
2018-04-17T07:02:10.188Z,24.17
2018-04-17T07:04:45.185Z,24.15
2018-04-17T07:07:19.896Z,24.14
2018-04-17T07:09:54.941Z,24.13
2018-04-17T07:12:30.113Z,24.13
2018-04-17T07:15:05.322Z,24.14
2018-04-17T07:17:39.865Z,24.14
2018-04-17T07:20:14.682Z,24.16
2018-04-17T07:22:51.382Z,24.19
2018-04-17T07:25:26.464Z,24.23
2018-04-17T07:28:01.024Z,24.27
2018-04-17T07:30:36.183Z,24.29
2018-04-17T07:33:11.519Z,24.34
2018-04-17T07:35:47.199Z,24.36
2018-04-17T07:38:21.906Z,24.39
2018-04-17T07:40:57.004Z,24.42
2018-04-17T07:43:31.676Z,24.46
2018-04-17T07:46:06.319Z,24.51
2018-04-17T07:48:50.607Z,24.52
2018-04-17T07:51:27.344Z,24.54
2018-04-17T07:54:01.908Z,24.56
2018-04-17T07:56:37.090Z,24.57
2018-04-17T07:59:12.428Z,24.59
2018-04-17T08:01:47.394Z,24.61
2018-04-17T08:04:22.099Z,24.62
2018-04-17T08:06:56.879Z,24.64
2018-04-17T08:09:31.537Z,24.65
2018-04-17T08:12:06.617Z,24.68
2018-04-17T08:14:41.291Z,24.69
2018-04-17T08:17:16.302Z,24.73
2018-04-17T08:19:50.941Z,24.75
2018-04-17T08:22:25.820Z,24.76
2018-04-17T08:25:00.376Z,24.79
2018-04-17T08:27:35.699Z,24.81
2018-04-17T08:30:10.329Z,24.83
2018-04-17T08:32:45.146Z,24.82
2018-04-17T08:35:20.308Z,24.83
2018-04-17T08:37:55.350Z,24.83
2018-04-17T08:40:30.152Z,24.86
2018-04-17T08:43:04.761Z,24.87
2018-04-17T08:45:39.144Z,24.87
2018-04-17T08:48:14.055Z,24.87
2018-04-17T08:50:48.628Z,24.87
2018-04-17T08:53:23.647Z,24.88
2018-04-17T08:55:58.353Z,24.89
2018-04-17T08:58:33.858Z,24.91
2018-04-17T09:01:09.163Z,24.91
2018-04-17T09:03:43.827Z,24.91
2018-04-17T09:06:19.451Z,24.92
2018-04-17T09:08:54.191Z,24.93
2018-04-17T09:11:29.855Z,24.94
2018-04-17T09:14:04.823Z,24.96
2018-04-17T09:16:39.482Z,24.97
2018-04-17T09:19:14.443Z,24.97
2018-04-17T09:21:49.792Z,24.98
2018-04-17T09:24:24.499Z,24.98
2018-04-17T09:27:00.069Z,25.03
2018-04-17T09:29:36.415Z,25.04
2018-04-17T09:32:10.963Z,25.04
2018-04-17T09:34:45.669Z,25.05
2018-04-17T09:37:20.353Z,25.06
2018-04-17T09:39:55.397Z,25.07
2018-04-17T09:42:30.139Z,25.08
2018-04-17T09:45:05.336Z,25.08
2018-04-17T09:47:39.984Z,25.07
2018-04-17T09:50:14.793Z,25.08
2018-04-17T09:52:49.616Z,25.08
2018-04-17T09:55:24.295Z,25.09
2018-04-17T09:57:58.926Z,25.12
2018-04-17T10:00:39.141Z,25.12
2018-04-17T10:03:13.653Z,25.12
2018-04-17T10:05:48.255Z,25.15
2018-04-17T10:08:22.957Z,25.13
2018-04-17T10:10:58.226Z,25.13
2018-04-17T10:13:32.830Z,25.13
2018-04-17T10:16:08.205Z,25.15
2018-04-17T10:18:43.523Z,25.13
2018-04-17T10:21:18.609Z,25.15
2018-04-17T10:23:53.362Z,25.19
2018-04-17T10:26:27.985Z,25.16
2018-04-17T10:29:02.652Z,25.13
2018-04-17T10:31:37.119Z,25.11
2018-04-17T10:34:11.943Z,25.11
2018-04-17T10:36:46.927Z,25.10
2018-04-17T10:39:21.623Z,25.09
2018-04-17T10:41:56.263Z,25.10
2018-04-17T10:44:31.078Z,25.10
2018-04-17T10:47:05.997Z,25.09
2018-04-17T10:49:40.610Z,25.07
2018-04-17T10:52:15.578Z,25.06
2018-04-17T10:54:50.143Z,25.06
2018-04-17T10:57:24.837Z,25.06
2018-04-17T10:59:59.584Z,25.05
2018-04-17T11:02:34.784Z,25.05
2018-04-17T11:05:09.646Z,25.06
2018-04-17T11:07:44.230Z,25.05
2018-04-17T11:10:18.696Z,25.05
2018-04-17T11:12:53.908Z,25.04
2018-04-17T11:15:28.385Z,25.07
2018-04-17T11:18:02.909Z,25.07
2018-04-17T11:20:37.639Z,25.06
2018-04-17T11:23:12.671Z,25.04
2018-04-17T11:25:47.476Z,25.06
2018-04-17T11:28:22.766Z,25.07
2018-04-17T11:30:57.513Z,25.06
2018-04-17T11:33:31.878Z,25.05
2018-04-17T11:36:06.580Z,25.03
2018-04-17T11:38:41.235Z,25.04
2018-04-17T11:41:16.015Z,25.09
2018-04-17T11:43:50.709Z,25.09
2018-04-17T11:46:25.451Z,25.05
2018-04-17T11:49:00.469Z,25.10
2018-04-17T11:51:36.038Z,25.06
2018-04-17T11:54:10.600Z,25.03
2018-04-17T11:56:45.299Z,25.02
2018-04-17T11:59:20.151Z,25.03
2018-04-17T12:01:54.510Z,25.00
2018-04-17T12:04:29.361Z,25.02
2018-04-17T12:07:03.799Z,25.00
2018-04-17T12:09:38.476Z,24.99
2018-04-17T12:12:13.144Z,24.97
2018-04-17T12:14:48.155Z,24.98
2018-04-17T12:17:22.804Z,24.95
2018-04-17T12:19:57.539Z,24.93
2018-04-17T12:22:32.248Z,24.91
2018-04-17T12:25:06.979Z,24.94
2018-04-17T12:27:41.802Z,24.95
2018-04-17T12:30:17.473Z,24.96
2018-04-17T12:32:51.965Z,25.00
2018-04-17T12:35:27.302Z,25.01
2018-04-17T12:38:01.809Z,25.03
2018-04-17T12:40:37.716Z,25.03
2018-04-17T12:43:12.492Z,25.04
2018-04-17T12:45:47.576Z,25.07
2018-04-17T12:48:22.260Z,25.07
2018-04-17T12:50:58.135Z,25.08
2018-04-17T12:53:32.741Z,25.08
2018-04-17T12:56:07.545Z,25.08
2018-04-17T12:58:43.197Z,25.10
2018-04-17T13:01:18.188Z,25.08
2018-04-17T13:03:52.908Z,25.07
2018-04-17T13:06:27.894Z,25.07
2018-04-17T13:09:02.559Z,25.10
2018-04-17T13:11:37.709Z,25.10
2018-04-17T13:14:13.327Z,25.08
2018-04-17T13:16:48.593Z,25.08
2018-04-17T13:19:23.101Z,25.08
2018-04-17T13:21:57.734Z,25.12
2018-04-17T13:24:32.278Z,25.14
2018-04-17T13:27:07.237Z,25.13
2018-04-17T13:29:41.971Z,25.12
2018-04-17T13:32:16.663Z,25.12
2018-04-17T13:34:51.419Z,25.13
2018-04-17T13:37:26.422Z,25.14
2018-04-17T13:40:00.964Z,25.15
2018-04-17T13:42:35.879Z,25.17
2018-04-17T13:45:10.498Z,25.19
2018-04-17T13:47:45.247Z,25.22
2018-04-17T13:50:20.023Z,25.20
2018-04-17T13:52:55.179Z,25.18
2018-04-17T13:55:32.597Z,25.17
2018-04-17T13:58:07.395Z,25.20
2018-04-17T14:00:45.341Z,25.22
2018-04-17T14:03:20.104Z,25.25
2018-04-17T14:05:54.821Z,25.26
2018-04-17T14:08:30.088Z,25.24
2018-04-17T14:11:04.759Z,25.24
2018-04-17T14:13:40.426Z,25.24
2018-04-17T14:16:15.931Z,25.24
2018-04-17T14:18:50.679Z,25.24
2018-04-17T14:21:25.373Z,25.24
2018-04-17T14:24:00.216Z,25.24
2018-04-17T14:26:36.361Z,25.24
2018-04-17T14:29:11.001Z,25.26
2018-04-17T14:31:45.621Z,25.27
2018-04-17T14:34:20.773Z,25.26
2018-04-17T14:36:55.228Z,25.26
2018-04-17T14:39:30.588Z,25.26
2018-04-17T14:42:05.220Z,25.26
2018-04-17T14:44:39.921Z,25.28
2018-04-17T14:47:14.573Z,25.26
2018-04-17T14:49:49.684Z,25.28
2018-04-17T14:52:24.919Z,25.28
2018-04-17T14:54:59.615Z,25.27
2018-04-17T14:57:35.199Z,25.29
2018-04-17T15:00:09.936Z,25.27
2018-04-17T15:02:44.778Z,25.28
2018-04-17T15:05:19.724Z,25.27
2018-04-17T15:07:55.491Z,25.28
2018-04-17T15:10:30.524Z,25.27
2018-04-17T15:13:05.147Z,25.28
2018-04-17T15:15:40.859Z,25.27
2018-04-17T15:18:15.429Z,25.26
2018-04-17T15:20:50.151Z,25.27
2018-04-17T15:23:26.059Z,25.26
2018-04-17T15:26:00.717Z,25.26
2018-04-17T15:28:35.465Z,25.27
2018-04-17T15:31:11.736Z,25.27
2018-04-17T15:33:46.211Z,25.28
2018-04-17T15:36:21.011Z,25.31
2018-04-17T15:38:55.685Z,25.29
2018-04-17T15:41:30.720Z,25.30
2018-04-17T15:44:05.366Z,25.30
2018-04-17T15:46:40.088Z,25.32
2018-04-17T15:49:14.785Z,25.32
2018-04-17T15:51:49.847Z,25.32
2018-04-17T15:54:24.458Z,25.30
2018-04-17T15:56:59.184Z,25.30
2018-04-17T15:59:34.339Z,25.30
2018-04-17T16:02:09.284Z,25.31
2018-04-17T16:04:43.946Z,25.28
2018-04-17T16:07:18.655Z,25.27
2018-04-17T16:09:53.328Z,25.24
2018-04-17T16:12:28.392Z,25.21
2018-04-17T16:15:02.981Z,25.17
2018-04-17T16:17:37.749Z,25.12
2018-04-17T16:20:12.200Z,25.12
2018-04-17T16:22:46.679Z,25.10
2018-04-17T16:25:21.409Z,25.05
2018-04-17T16:27:56.382Z,25.05
2018-04-17T16:30:31.083Z,25.02
2018-04-17T16:33:05.775Z,25.01
2018-04-17T16:35:40.637Z,24.99
2018-04-17T16:38:15.323Z,24.98
2018-04-17T16:40:49.852Z,24.97
2018-04-17T16:43:25.143Z,24.95
2018-04-17T16:45:59.727Z,24.94
2018-04-17T16:48:35.061Z,24.93
2018-04-17T16:51:09.560Z,24.93
2018-04-17T16:53:44.295Z,24.92
2018-04-17T16:56:19.415Z,24.92
2018-04-17T16:58:54.500Z,24.91
2018-04-17T17:01:29.158Z,24.89
2018-04-17T17:04:03.848Z,24.88
2018-04-17T17:06:38.527Z,24.88
2018-04-17T17:09:13.567Z,24.88
2018-04-17T17:11:48.323Z,24.85
2018-04-17T17:14:22.863Z,24.83
2018-04-17T17:16:57.335Z,24.84
2018-04-17T17:19:32.079Z,24.82
2018-04-17T17:22:06.511Z,24.83
2018-04-17T17:24:41.551Z,24.81
2018-04-17T17:27:15.923Z,24.81
2018-04-17T17:29:50.534Z,24.80
2018-04-17T17:32:25.281Z,24.79
2018-04-17T17:35:00.328Z,24.80
2018-04-17T17:37:35.047Z,24.79
2018-04-17T17:40:10.010Z,24.79
2018-04-17T17:42:44.554Z,24.78
2018-04-17T17:45:19.303Z,24.78
2018-04-17T17:47:54.023Z,24.79
2018-04-17T17:50:28.309Z,24.78
2018-04-17T17:53:03.048Z,24.79
2018-04-17T17:55:38.067Z,24.78
2018-04-17T17:58:12.744Z,24.76
2018-04-17T18:00:47.291Z,24.77
2018-04-17T18:03:22.090Z,24.75
2018-04-17T18:05:56.819Z,24.74
2018-04-17T18:08:31.514Z,24.75
2018-04-17T18:11:06.582Z,24.74
2018-04-17T18:13:41.407Z,24.74
2018-04-17T18:16:16.397Z,24.73
2018-04-17T18:18:51.038Z,24.73
2018-04-17T18:21:25.679Z,24.73
2018-04-17T18:24:00.498Z,24.74
2018-04-17T18:26:35.543Z,24.73
2018-04-17T18:29:10.342Z,24.73
2018-04-17T18:31:45.389Z,24.72
2018-04-17T18:34:20.047Z,24.71
2018-04-17T18:36:55.139Z,24.73
2018-04-17T18:39:29.851Z,24.72
2018-04-17T18:42:05.021Z,24.70
2018-04-17T18:44:39.603Z,24.68
2018-04-17T18:47:14.223Z,24.70
2018-04-17T18:49:48.954Z,24.68
2018-04-17T18:52:24.017Z,24.69
2018-04-17T18:54:58.733Z,24.68
2018-04-17T18:57:33.822Z,24.68
2018-04-17T19:00:08.352Z,24.68
2018-04-17T19:02:43.131Z,24.65
2018-04-17T19:05:17.855Z,24.66
2018-04-17T19:07:52.990Z,24.66
2018-04-17T19:10:27.314Z,24.67
2018-04-17T19:13:02.061Z,24.65
2018-04-17T19:15:36.750Z,24.64
2018-04-17T19:18:11.528Z,24.64
2018-04-17T19:20:46.138Z,24.64
2018-04-17T19:23:20.844Z,24.63
2018-04-17T19:25:55.507Z,24.61
2018-04-17T19:28:30.611Z,24.63
2018-04-17T19:31:04.994Z,24.62
2018-04-17T19:33:39.542Z,24.61
2018-04-17T19:36:14.287Z,24.62
2018-04-17T19:38:48.725Z,24.61
2018-04-17T19:41:23.578Z,24.61
2018-04-17T19:43:58.187Z,24.60
2018-04-17T19:46:32.851Z,24.61
2018-04-17T19:49:07.905Z,24.61
2018-04-17T19:51:42.655Z,24.61
2018-04-17T19:54:17.373Z,24.61
2018-04-17T19:56:52.087Z,24.61
2018-04-17T19:59:27.132Z,24.60
2018-04-17T20:02:01.732Z,24.62
2018-04-17T20:04:36.800Z,24.65
2018-04-17T20:07:11.410Z,24.68
2018-04-17T20:09:46.542Z,24.71
2018-04-17T20:12:21.167Z,24.75
2018-04-17T20:14:55.883Z,24.78
2018-04-17T20:17:30.580Z,24.80
2018-04-17T20:20:04.897Z,24.82
2018-04-17T20:22:39.473Z,24.85
2018-04-17T20:25:14.033Z,24.86
2018-04-17T20:27:48.588Z,24.88
2018-04-17T20:30:23.648Z,24.90
2018-04-17T20:32:59.446Z,24.92
2018-04-17T20:35:34.302Z,24.93
2018-04-17T20:38:09.282Z,24.94
2018-04-17T20:40:43.811Z,24.97
2018-04-17T20:43:19.443Z,24.98
2018-04-17T20:45:55.029Z,25.00
2018-04-17T20:48:29.655Z,25.01
2018-04-17T20:51:05.160Z,25.01
2018-04-17T20:53:40.831Z,25.04
2018-04-17T20:56:15.452Z,25.05
2018-04-17T20:58:50.989Z,25.07
2018-04-17T21:01:25.600Z,25.08
2018-04-17T21:04:00.322Z,25.09
2018-04-17T21:06:35.357Z,25.10
2018-04-17T21:09:09.981Z,25.11
2018-04-17T21:11:45.012Z,25.12
2018-04-17T21:14:19.435Z,25.13
2018-04-17T21:16:54.272Z,25.14
2018-04-17T21:19:28.512Z,25.14
2018-04-17T21:22:03.603Z,25.14
2018-04-17T21:24:38.237Z,25.15
2018-04-17T21:27:12.891Z,25.16
2018-04-17T21:29:47.659Z,25.17
2018-04-17T21:32:22.417Z,25.18
2018-04-17T21:34:57.124Z,25.18
2018-04-17T21:37:31.791Z,25.19
2018-04-17T21:40:06.471Z,25.20
2018-04-17T21:42:41.537Z,25.19
2018-04-17T21:45:16.235Z,25.20
2018-04-17T21:47:51.144Z,25.21
2018-04-17T21:50:25.851Z,25.22
2018-04-17T21:53:00.547Z,25.22
2018-04-17T21:55:35.300Z,25.22
2018-04-17T21:58:10.231Z,25.23
2018-04-17T22:00:44.919Z,25.23
2018-04-17T22:03:19.982Z,25.23
2018-04-17T22:05:54.595Z,25.24
2018-04-17T22:08:29.635Z,25.25
2018-04-17T22:11:04.351Z,25.26
2018-04-17T22:13:39.444Z,25.26
2018-04-17T22:16:14.263Z,25.26
2018-04-17T22:18:49.210Z,25.26
2018-04-17T22:21:23.877Z,25.26
2018-04-17T22:23:58.275Z,25.26
2018-04-17T22:26:33.025Z,25.26
2018-04-17T22:29:07.587Z,25.26
2018-04-17T22:31:42.146Z,25.26
2018-04-17T22:34:17.118Z,25.27
2018-04-17T22:36:51.471Z,25.26
2018-04-17T22:39:26.251Z,25.27
2018-04-17T22:42:00.603Z,25.27
2018-04-17T22:44:35.308Z,25.26
2018-04-17T22:47:09.607Z,25.25
2018-04-17T22:49:44.015Z,25.25
2018-04-17T22:52:18.501Z,25.24
2018-04-17T22:54:53.388Z,25.24
2018-04-17T22:57:27.699Z,25.24
2018-04-17T23:00:02.441Z,25.25
2018-04-17T23:02:37.143Z,25.24
2018-04-17T23:05:12.077Z,25.25
2018-04-17T23:07:47.713Z,25.24
2018-04-17T23:10:22.430Z,25.24
2018-04-17T23:12:57.064Z,25.24
2018-04-17T23:15:32.842Z,25.24
2018-04-17T23:18:07.357Z,25.23
2018-04-17T23:20:42.396Z,25.22
2018-04-17T23:23:16.990Z,25.22
2018-04-17T23:25:51.682Z,25.22
2018-04-17T23:28:26.388Z,25.23
2018-04-17T23:31:01.509Z,25.22
2018-04-17T23:33:36.187Z,25.22
2018-04-17T23:36:11.267Z,25.23
2018-04-17T23:38:45.794Z,25.25
2018-04-17T23:41:20.445Z,25.25
2018-04-17T23:43:55.127Z,25.25
2018-04-17T23:46:30.177Z,25.26
2018-04-17T23:49:04.807Z,25.26
2018-04-17T23:51:39.546Z,25.27
2018-04-17T23:54:14.378Z,25.27
2018-04-17T23:56:49.285Z,25.28
2018-04-17T23:59:23.991Z,25.28
